PUA2603 SUMU-SAEZ
Flight info
| Callsign | PUA2603 |
|---|---|
| Flight time | 0h 30m |
| Altitude | 16000 |
| Route | DAGUS DCT UGIMI |
| Aircraft | A339/H-SADE1E2E3GHIJ3J5M1P2RWXY/LB2D1 |
Departure
| Time | 2026-05-08 16:17 |
|---|---|
| Airport | Carrasco General Cesáreo L. Berisso International Airport (SUMU) |
Arrival
| Time | 2026-05-08 16:48 |
|---|---|
| Airport | Ezeiza International Airport - Ministro Pistarini (SAEZ) |
| Time | Latitude | Longitude | Altitude | Speed | Heading |
|---|---|---|---|---|---|
| 2026-05-08 15:57 | -34.83542 | -56.01659 | 88 ft | 0 kts | 143° |
| 2026-05-08 16:09 | -34.83543 | -56.01659 | 88 ft | 0 kts | 143° |
| 2026-05-08 16:09 | -34.83534 | -56.01666 | 88 ft | 2 kts | 143° |
| 2026-05-08 16:10 | -34.83522 | -56.01677 | 89 ft | 2 kts | 143° |
| 2026-05-08 16:10 | -34.83510 | -56.01688 | 89 ft | 2 kts | 143° |
| 2026-05-08 16:10 | -34.83498 | -56.01699 | 89 ft | 2 kts | 147° |
| 2026-05-08 16:10 | -34.83485 | -56.01706 | 90 ft | 2 kts | 175° |
| 2026-05-08 16:11 | -34.83470 | -56.01704 | 90 ft | 2 kts | 197° |
| 2026-05-08 16:11 | -34.83457 | -56.01697 | 91 ft | 2 kts | 219° |
| 2026-05-08 16:11 | -34.83451 | -56.01689 | 91 ft | 0 kts | 234° |
| 2026-05-08 16:11 | -34.83448 | -56.01685 | 91 ft | 0 kts | 233° |
| 2026-05-08 16:12 | -34.83449 | -56.01686 | 91 ft | 1 kts | 234° |
| 2026-05-08 16:13 | -34.83462 | -56.01718 | 90 ft | 6 kts | 263° |
| 2026-05-08 16:13 | -34.83423 | -56.01786 | 91 ft | 13 kts | 317° |
| 2026-05-08 16:13 | -34.83346 | -56.01852 | 92 ft | 10 kts | 346° |
| 2026-05-08 16:13 | -34.83282 | -56.01819 | 93 ft | 13 kts | 44° |
| 2026-05-08 16:14 | -34.83207 | -56.01707 | 95 ft | 19 kts | 52° |
| 2026-05-08 16:14 | -34.83125 | -56.01574 | 101 ft | 18 kts | 52° |
| 2026-05-08 16:14 | -34.83053 | -56.01457 | 104 ft | 16 kts | 53° |
| 2026-05-08 16:14 | -34.82990 | -56.01353 | 109 ft | 13 kts | 54° |
| 2026-05-08 16:15 | -34.82932 | -56.01256 | 111 ft | 14 kts | 53° |
| 2026-05-08 16:15 | -34.82869 | -56.01159 | 113 ft | 12 kts | 40° |
| 2026-05-08 16:15 | -34.82800 | -56.01147 | 113 ft | 10 kts | 359° |
| 2026-05-08 16:15 | -34.82732 | -56.01164 | 113 ft | 10 kts | 329° |
| 2026-05-08 16:16 | -34.82717 | -56.01238 | 110 ft | 7 kts | 233° |
| 2026-05-08 16:16 | -34.82773 | -56.01333 | 108 ft | 33 kts | 235° |
| 2026-05-08 16:16 | -34.83053 | -56.01801 | 93 ft | 101 kts | 232° |
| 2026-05-08 16:16 | -34.83579 | -56.02665 | 84 ft | 153 kts | 237° |
| 2026-05-08 16:17 | -34.84282 | -56.03804 | 294 ft | 179 kts | 237° |
| 2026-05-08 16:17 | -34.85004 | -56.04977 | 1145 ft | 171 kts | 238° |
| 2026-05-08 16:17 | -34.85697 | -56.06048 | 2090 ft | 161 kts | 230° |
| 2026-05-08 16:17 | -34.86698 | -56.06801 | 2564 ft | 185 kts | 206° |
| 2026-05-08 16:18 | -34.88062 | -56.07057 | 2957 ft | 212 kts | 193° |
| 2026-05-08 16:18 | -34.89536 | -56.07339 | 3402 ft | 224 kts | 201° |
| 2026-05-08 16:18 | -34.91100 | -56.07823 | 3868 ft | 242 kts | 201° |
| 2026-05-08 16:18 | -34.92755 | -56.08373 | 4489 ft | 252 kts | 201° |
| 2026-05-08 16:19 | -34.94445 | -56.08963 | 5283 ft | 256 kts | 201° |
| 2026-05-08 16:19 | -34.96166 | -56.09580 | 6055 ft | 260 kts | 202° |
| 2026-05-08 16:19 | -34.97899 | -56.10213 | 6817 ft | 264 kts | 201° |
| 2026-05-08 16:19 | -34.99651 | -56.10858 | 7564 ft | 268 kts | 201° |
| 2026-05-08 16:20 | -35.01390 | -56.11589 | 8295 ft | 268 kts | 212° |
| 2026-05-08 16:20 | -35.02752 | -56.13011 | 9024 ft | 264 kts | 237° |
| 2026-05-08 16:20 | -35.03488 | -56.15047 | 9747 ft | 265 kts | 259° |
| 2026-05-08 16:20 | -35.03514 | -56.17314 | 10274 ft | 277 kts | 273° |
| 2026-05-08 16:21 | -35.03336 | -56.19722 | 10620 ft | 295 kts | 274° |
| 2026-05-08 16:21 | -35.03144 | -56.22236 | 10937 ft | 312 kts | 274° |
| 2026-05-08 16:21 | -35.02939 | -56.24969 | 11327 ft | 328 kts | 274° |
| 2026-05-08 16:21 | -35.02735 | -56.27731 | 12011 ft | 333 kts | 274° |
| 2026-05-08 16:22 | -35.02533 | -56.30499 | 12748 ft | 336 kts | 274° |
| 2026-05-08 16:22 | -35.02325 | -56.33362 | 13448 ft | 340 kts | 274° |
| 2026-05-08 16:22 | -35.02117 | -56.36245 | 14124 ft | 345 kts | 274° |
| 2026-05-08 16:22 | -35.01910 | -56.39125 | 14783 ft | 350 kts | 274° |
| 2026-05-08 16:23 | -35.01698 | -56.42079 | 15344 ft | 355 kts | 274° |
| 2026-05-08 16:23 | -35.01479 | -56.45099 | 15611 ft | 358 kts | 274° |
| 2026-05-08 16:23 | -35.01264 | -56.48066 | 15629 ft | 358 kts | 274° |
| 2026-05-08 16:23 | -35.01043 | -56.51097 | 15636 ft | 358 kts | 274° |
| 2026-05-08 16:24 | -35.00824 | -56.54100 | 15637 ft | 358 kts | 274° |
| 2026-05-08 16:24 | -35.00606 | -56.57084 | 15640 ft | 358 kts | 274° |
| 2026-05-08 16:24 | -35.00386 | -56.60072 | 15640 ft | 357 kts | 274° |
| 2026-05-08 16:24 | -35.00166 | -56.63072 | 15641 ft | 358 kts | 274° |
| 2026-05-08 16:25 | -34.99943 | -56.66084 | 15636 ft | 358 kts | 275° |
| 2026-05-08 16:25 | -34.99724 | -56.69040 | 15638 ft | 359 kts | 274° |
| 2026-05-08 16:25 | -34.99500 | -56.72041 | 15637 ft | 359 kts | 274° |
| 2026-05-08 16:25 | -34.99279 | -56.75026 | 15639 ft | 359 kts | 275° |
| 2026-05-08 16:26 | -34.99059 | -56.77972 | 15640 ft | 359 kts | 275° |
| 2026-05-08 16:26 | -34.98841 | -56.80877 | 15643 ft | 359 kts | 275° |
| 2026-05-08 16:26 | -34.98619 | -56.83818 | 15645 ft | 358 kts | 275° |
| 2026-05-08 16:26 | -34.98394 | -56.86787 | 15654 ft | 358 kts | 275° |
| 2026-05-08 16:27 | -34.98159 | -56.89797 | 15657 ft | 359 kts | 275° |
| 2026-05-08 16:27 | -34.97907 | -56.92754 | 15659 ft | 359 kts | 275° |
| 2026-05-08 16:27 | -34.97642 | -56.95768 | 15662 ft | 360 kts | 275° |
| 2026-05-08 16:27 | -34.97380 | -56.98752 | 15660 ft | 360 kts | 275° |
| 2026-05-08 16:28 | -34.97121 | -57.01706 | 15635 ft | 361 kts | 275° |
| 2026-05-08 16:28 | -34.96856 | -57.04713 | 15417 ft | 359 kts | 275° |
| 2026-05-08 16:28 | -34.96600 | -57.07623 | 15129 ft | 357 kts | 275° |
| 2026-05-08 16:28 | -34.96339 | -57.10589 | 14796 ft | 355 kts | 275° |
| 2026-05-08 16:29 | -34.96078 | -57.13549 | 14456 ft | 353 kts | 275° |
| 2026-05-08 16:29 | -34.95818 | -57.16488 | 14113 ft | 351 kts | 275° |
| 2026-05-08 16:29 | -34.95565 | -57.19340 | 13774 ft | 349 kts | 275° |
| 2026-05-08 16:29 | -34.95308 | -57.22240 | 13439 ft | 346 kts | 275° |
| 2026-05-08 16:30 | -34.95050 | -57.25143 | 13103 ft | 343 kts | 275° |
| 2026-05-08 16:30 | -34.94795 | -57.28012 | 12744 ft | 341 kts | 275° |
| 2026-05-08 16:30 | -34.94541 | -57.30845 | 12395 ft | 339 kts | 275° |
| 2026-05-08 16:30 | -34.94285 | -57.33680 | 12057 ft | 336 kts | 275° |
| 2026-05-08 16:31 | -34.94032 | -57.36482 | 11712 ft | 334 kts | 275° |
| 2026-05-08 16:31 | -34.93781 | -57.39262 | 11356 ft | 332 kts | 275° |
| 2026-05-08 16:31 | -34.93530 | -57.42028 | 11023 ft | 329 kts | 274° |
| 2026-05-08 16:31 | -34.93280 | -57.44791 | 10678 ft | 327 kts | 275° |
| 2026-05-08 16:32 | -34.93034 | -57.47506 | 10339 ft | 324 kts | 275° |
| 2026-05-08 16:32 | -34.92788 | -57.50214 | 9964 ft | 318 kts | 275° |
| 2026-05-08 16:32 | -34.92546 | -57.52842 | 9797 ft | 302 kts | 275° |
| 2026-05-08 16:32 | -34.92322 | -57.55282 | 9770 ft | 283 kts | 275° |
| 2026-05-08 16:33 | -34.92110 | -57.57586 | 9753 ft | 266 kts | 275° |
| 2026-05-08 16:33 | -34.91909 | -57.59769 | 9761 ft | 256 kts | 274° |
| 2026-05-08 16:33 | -34.91716 | -57.61876 | 9740 ft | 252 kts | 274° |
| 2026-05-08 16:33 | -34.91522 | -57.63990 | 9646 ft | 251 kts | 275° |
| 2026-05-08 16:34 | -34.91328 | -57.66096 | 9351 ft | 252 kts | 275° |
| 2026-05-08 16:34 | -34.91135 | -57.68173 | 9091 ft | 251 kts | 275° |
| 2026-05-08 16:34 | -34.90939 | -57.70287 | 8863 ft | 249 kts | 275° |
| 2026-05-08 16:34 | -34.90747 | -57.72339 | 8629 ft | 246 kts | 275° |
| 2026-05-08 16:35 | -34.90554 | -57.74423 | 8405 ft | 245 kts | 275° |
| 2026-05-08 16:35 | -34.90365 | -57.76461 | 8169 ft | 243 kts | 275° |
| 2026-05-08 16:35 | -34.90177 | -57.78468 | 7938 ft | 242 kts | 275° |
| 2026-05-08 16:35 | -34.89987 | -57.80494 | 7715 ft | 240 kts | 275° |
| 2026-05-08 16:36 | -34.89800 | -57.82471 | 7493 ft | 238 kts | 274° |
| 2026-05-08 16:36 | -34.89614 | -57.84443 | 7274 ft | 237 kts | 274° |
| 2026-05-08 16:36 | -34.89427 | -57.86423 | 7052 ft | 235 kts | 274° |
| 2026-05-08 16:36 | -34.89242 | -57.88399 | 6829 ft | 234 kts | 274° |
| 2026-05-08 16:37 | -34.89061 | -57.90331 | 6612 ft | 232 kts | 274° |
| 2026-05-08 16:37 | -34.88874 | -57.92300 | 6390 ft | 231 kts | 273° |
| 2026-05-08 16:37 | -34.88690 | -57.94232 | 6174 ft | 230 kts | 273° |
| 2026-05-08 16:37 | -34.88509 | -57.96148 | 5959 ft | 229 kts | 274° |
| 2026-05-08 16:38 | -34.88329 | -57.98049 | 5740 ft | 227 kts | 273° |
| 2026-05-08 16:38 | -34.88145 | -57.99964 | 5526 ft | 226 kts | 273° |
| 2026-05-08 16:38 | -34.87965 | -58.01861 | 5304 ft | 225 kts | 273° |
| 2026-05-08 16:38 | -34.87786 | -58.03726 | 5095 ft | 224 kts | 273° |
| 2026-05-08 16:39 | -34.87607 | -58.05602 | 4886 ft | 222 kts | 273° |
| 2026-05-08 16:39 | -34.87427 | -58.07468 | 4676 ft | 220 kts | 273° |
| 2026-05-08 16:39 | -34.87254 | -58.09295 | 4472 ft | 219 kts | 272° |
| 2026-05-08 16:39 | -34.87075 | -58.11143 | 4257 ft | 218 kts | 272° |
| 2026-05-08 16:40 | -34.86897 | -58.12988 | 4050 ft | 217 kts | 272° |
| 2026-05-08 16:40 | -34.86724 | -58.14791 | 3855 ft | 215 kts | 272° |
| 2026-05-08 16:40 | -34.86549 | -58.16598 | 3704 ft | 211 kts | 272° |
| 2026-05-08 16:40 | -34.86381 | -58.18309 | 3716 ft | 200 kts | 272° |
| 2026-05-08 16:41 | -34.86219 | -58.19991 | 3717 ft | 201 kts | 272° |
| 2026-05-08 16:41 | -34.86094 | -58.21694 | 3699 ft | 201 kts | 268° |
| 2026-05-08 16:41 | -34.86080 | -58.23408 | 3476 ft | 203 kts | 266° |
| 2026-05-08 16:42 | -34.86079 | -58.26817 | 3032 ft | 201 kts | 266° |
| 2026-05-08 16:42 | -34.86120 | -58.28474 | 2806 ft | 194 kts | 262° |
| 2026-05-08 16:42 | -34.86193 | -58.30084 | 2680 ft | 185 kts | 268° |
| 2026-05-08 16:42 | -34.86098 | -58.31589 | 2670 ft | 171 kts | 273° |
| 2026-05-08 16:43 | -34.85914 | -58.32956 | 2656 ft | 158 kts | 275° |
| 2026-05-08 16:43 | -34.85714 | -58.34179 | 2653 ft | 144 kts | 276° |
| 2026-05-08 16:43 | -34.85508 | -58.35369 | 2636 ft | 145 kts | 276° |
| 2026-05-08 16:43 | -34.85299 | -58.36550 | 2523 ft | 147 kts | 276° |
| 2026-05-08 16:44 | -34.85089 | -58.37718 | 2313 ft | 144 kts | 277° |
| 2026-05-08 16:44 | -34.84885 | -58.38834 | 2131 ft | 136 kts | 277° |
| 2026-05-08 16:44 | -34.84691 | -58.39899 | 1964 ft | 133 kts | 277° |
| 2026-05-08 16:44 | -34.84497 | -58.40971 | 1803 ft | 133 kts | 277° |
| 2026-05-08 16:45 | -34.84302 | -58.42057 | 1636 ft | 133 kts | 278° |
| 2026-05-08 16:45 | -34.84109 | -58.43119 | 1472 ft | 132 kts | 278° |
| 2026-05-08 16:45 | -34.83916 | -58.44188 | 1292 ft | 132 kts | 277° |
| 2026-05-08 16:45 | -34.83722 | -58.45266 | 1131 ft | 132 kts | 279° |
| 2026-05-08 16:46 | -34.83528 | -58.46331 | 963 ft | 131 kts | 275° |
| 2026-05-08 16:46 | -34.83337 | -58.47398 | 796 ft | 130 kts | 277° |
| 2026-05-08 16:46 | -34.83148 | -58.48463 | 625 ft | 131 kts | 281° |
| 2026-05-08 16:46 | -34.82935 | -58.49536 | 454 ft | 131 kts | 278° |
| 2026-05-08 16:47 | -34.82750 | -58.50586 | 301 ft | 128 kts | 278° |
| 2026-05-08 16:47 | -34.82567 | -58.51646 | 126 ft | 128 kts | 279° |
| 2026-05-08 16:47 | -34.82380 | -58.52640 | 80 ft | 115 kts | 278° |
| 2026-05-08 16:47 | -34.82254 | -58.53417 | 80 ft | 73 kts | 279° |
| 2026-05-08 16:48 | -34.82165 | -58.53896 | 80 ft | 47 kts | 283° |
| 2026-05-08 16:48 | -34.82109 | -58.54235 | 80 ft | 39 kts | 281° |
| 2026-05-08 16:48 | -34.82072 | -58.54455 | 78 ft | 23 kts | 280° |
| 2026-05-08 16:48 | -34.82013 | -58.54532 | 77 ft | 13 kts | 359° |
| 2026-05-08 16:49 | -34.81912 | -58.54470 | 79 ft | 18 kts | 33° |
| 2026-05-08 16:49 | -34.81808 | -58.54386 | 80 ft | 18 kts | 36° |
| 2026-05-08 16:49 | -34.81777 | -58.54272 | 82 ft | 13 kts | 94° |
| 2026-05-08 16:49 | -34.81787 | -58.54158 | 85 ft | 14 kts | 97° |
| 2026-05-08 16:50 | -34.81789 | -58.54043 | 88 ft | 13 kts | 76° |
| 2026-05-08 16:50 | -34.81752 | -58.53942 | 90 ft | 14 kts | 59° |
| 2026-05-08 16:50 | -34.81692 | -58.53838 | 92 ft | 15 kts | 45° |
| 2026-05-08 16:50 | -34.81607 | -58.53744 | 93 ft | 18 kts | 41° |
| 2026-05-08 16:51 | -34.81514 | -58.53650 | 92 ft | 15 kts | 29° |
| 2026-05-08 16:51 | -34.81428 | -58.53618 | 90 ft | 9 kts | 340° |
| 2026-05-08 16:51 | -34.81382 | -58.53668 | 91 ft | 8 kts | 311° |
| 2026-05-08 16:51 | -34.81363 | -58.53695 | 91 ft | 1 kts | 308° |
| 2026-05-08 16:52 | -34.81358 | -58.53703 | 91 ft | 0 kts | 308° |
| 2026-05-08 16:52 | -34.81356 | -58.53705 | 91 ft | 0 kts | 308° |